Time;durP1;ratioP1;P1;durP2;ratioP2;P2;SDS_P1;SDS_P2;PMS_P1;PMS_P2;Temp;Humidity;BMP_temperature;BMP_pressure;BME280_temperature;BME280_humidity;BME280_pressure;Samples;Min_cycle;Max_cycle;Signal;HPM_P1;HPM_P2
2022/10/14 00:01:25;;;;;;;502.73;451.23;;;12.70;99.90;;;12.81;100.00;101036.22;4764591;30;20240;-84
2022/10/14 00:03:54;;;;;;;492.10;441.80;;;12.70;99.90;;;12.83;100.00;101042.44;4750760;30;20213;-85
2022/10/14 00:06:26;;;;;;;501.60;450.27;;;12.70;99.90;;;12.82;100.00;101040.66;4746570;30;20221;-84
2022/10/14 00:08:55;;;;;;;497.52;446.88;;;12.70;99.90;;;12.80;100.00;101045.94;4746608;30;20639;-84
2022/10/14 00:11:27;;;;;;;500.15;448.98;;;12.70;99.90;;;12.81;100.00;101042.41;4748807;30;20219;-83
2022/10/14 00:14:07;;;;;;;500.50;448.27;;;12.70;99.90;;;12.79;100.00;101041.50;4746304;30;20216;-84
2022/10/14 00:16:39;;;;;;;489.50;438.80;;;12.70;99.90;;;12.80;100.00;101045.94;4747367;30;20663;-84
2022/10/14 00:19:11;;;;;;;490.05;439.98;;;12.70;99.90;;;12.81;100.00;101046.84;4753998;30;20261;-85
2022/10/14 00:21:43;;;;;;;495.88;444.45;;;12.70;99.90;;;12.81;100.00;101046.84;4749852;30;20245;-84
2022/10/14 00:24:13;;;;;;;487.98;437.40;;;12.70;99.90;;;12.80;100.00;101047.72;4755985;30;20230;-84
2022/10/14 00:26:41;;;;;;;491.83;441.60;;;12.70;99.90;;;12.77;100.00;101043.25;4750186;30;20221;-83
2022/10/14 00:29:14;;;;;;;502.02;450.83;;;12.70;99.90;;;12.76;100.00;101036.16;4746883;30;20241;-84
2022/10/14 00:31:42;;;;;;;500.05;449.10;;;12.70;99.90;;;12.76;100.00;101041.47;4760378;30;20216;-84
2022/10/14 00:34:12;;;;;;;488.05;438.38;;;12.70;99.90;;;12.79;100.00;101046.81;4747091;30;20221;-84
2022/10/14 00:36:40;;;;;;;499.15;448.33;;;12.70;99.90;;;12.77;100.00;101051.22;4760233;29;20214;-84
2022/10/14 00:39:10;;;;;;;484.52;434.75;;;12.70;99.90;;;12.73;100.00;101054.72;4761399;30;20240;-84
2022/10/14 00:41:39;;;;;;;487.85;438.45;;;12.70;99.90;;;12.75;100.00;101060.03;4747880;30;20233;-84
2022/10/14 00:44:27;;;;;;;486.60;437.38;;;12.70;99.90;;;12.75;100.00;101060.94;4745952;30;20209;-84
2022/10/14 00:46:55;;;;;;;481.17;431.23;;;12.70;99.90;;;12.73;100.00;101054.72;4751306;30;20220;-84
2022/10/14 00:49:30;;;;;;;497.13;446.30;;;12.60;99.90;;;12.75;100.00;101052.97;4767768;30;20235;-84
2022/10/14 00:52:03;;;;;;;489.17;439.08;;;12.70;99.90;;;12.76;100.00;101060.06;4750567;30;20221;-85
2022/10/14 00:54:43;;;;;;;491.75;440.75;;;12.70;99.90;;;12.73;100.00;101051.19;4752625;30;20229;-83
2022/10/14 00:57:13;;;;;;;484.65;433.23;;;12.60;99.90;;;12.74;100.00;101042.34;4747958;30;20217;-84
2022/10/14 00:59:41;;;;;;;479.38;429.50;;;12.60;99.90;;;12.74;100.00;101048.53;4741936;30;20232;-84
2022/10/14 01:02:09;;;;;;;482.38;432.17;;;12.60;99.90;;;12.75;100.00;101038.81;4752107;30;20245;-84
2022/10/14 01:04:40;;;;;;;497.42;446.80;;;12.70;99.90;;;12.75;100.00;101038.81;4767811;30;20224;-84
2022/10/14 01:07:43;;;;;;;494.88;443.92;;;12.60;99.90;;;12.73;100.00;101036.16;4752582;30;20205;-85
2022/10/14 01:10:38;;;;;;;483.25;432.50;;;12.70;99.90;;;12.73;100.00;101036.16;4765770;30;20228;-84
2022/10/14 01:13:25;;;;;;;476.63;426.65;;;12.60;99.90;;;12.70;100.00;101046.72;4761232;30;20228;-84
2022/10/14 01:16:47;;;;;;;484.85;434.08;;;12.60;99.90;;;12.69;100.00;101052.91;4749232;30;20217;-85
2022/10/14 01:20:06;;;;;;;474.80;424.45;;;12.60;99.90;;;12.68;100.00;101050.25;4746441;30;20253;-84
2022/10/14 01:22:46;;;;;;;473.83;422.75;;;12.60;99.90;;;12.71;100.00;101051.16;4754300;30;20245;-84
2022/10/14 01:25:32;;;;;;;475.20;425.42;;;12.60;99.90;;;12.69;100.00;101044.06;4751120;30;20214;-84
2022/10/14 01:28:47;;;;;;;477.17;427.10;;;12.60;99.90;;;12.69;100.00;101054.66;4763006;30;20244;-84
2022/10/14 01:31:28;;;;;;;470.00;420.15;;;12.60;99.90;;;12.67;100.00;101046.69;4759658;30;20221;-84
2022/10/14 01:34:01;;;;;;;483.25;433.00;;;12.60;99.90;;;12.69;100.00;101058.22;4754902;30;20232;-83
2022/10/14 01:36:46;;;;;;;481.45;431.50;;;12.50;99.90;;;12.69;100.00;101057.31;4730656;30;20229;-83
2022/10/14 01:39:25;;;;;;;473.60;424.23;;;12.60;99.90;;;12.69;100.00;101057.31;4765228;30;20233;-84
2022/10/14 01:42:07;;;;;;;473.30;424.10;;;12.60;99.90;;;12.70;100.00;101054.69;4745648;30;20622;-84
2022/10/14 01:44:41;;;;;;;478.77;428.58;;;12.60;99.90;;;12.67;100.00;101048.47;4760600;30;20224;-84
2022/10/14 01:47:12;;;;;;;480.75;430.73;;;12.60;99.90;;;12.71;100.00;101044.97;4741619;30;20220;-84
2022/10/14 01:49:49;;;;;;;476.05;427.27;;;12.60;99.90;;;12.67;100.00;101029.88;4754736;30;20238;-84
2022/10/14 01:52:21;;;;;;;485.52;436.00;;;12.60;99.90;;;12.70;100.00;101045.84;4753788;30;20220;-85
2022/10/14 01:54:55;;;;;;;484.70;435.60;;;12.60;99.90;;;12.67;100.00;101041.38;4749629;30;20221;-84
2022/10/14 01:57:27;;;;;;;486.58;437.05;;;12.60;99.90;;;12.69;100.00;101037.00;4753980;30;20620;-86
2022/10/14 01:59:58;;;;;;;477.25;429.50;;;12.60;99.90;;;12.72;100.00;101036.13;4744971;30;20222;-84
2022/10/14 02:02:26;;;;;;;484.55;434.80;;;12.60;99.90;;;12.72;100.00;101029.06;4739291;30;20244;-84
2022/10/14 02:04:54;;;;;;;485.98;437.40;;;12.60;99.90;;;12.74;100.00;101026.41;4769833;30;20221;-84
2022/10/14 02:07:36;;;;;;;485.80;436.65;;;12.60;99.90;;;12.75;100.00;101023.78;4750326;30;20213;-84
2022/10/14 02:10:28;;;;;;;485.70;436.48;;;12.70;99.90;;;12.72;100.00;101010.47;4771278;29;20237;-85
2022/10/14 02:13:27;;;;;;;477.42;428.48;;;12.60;99.90;;;12.73;100.00;101008.72;4754351;30;20217;-84
2022/10/14 02:16:08;;;;;;;472.83;423.27;;;12.60;99.90;;;12.72;100.00;101007.81;4762063;30;20589;-84
2022/10/14 02:19:17;;;;;;;476.52;427.00;;;12.60;99.90;;;12.74;100.00;101002.53;4751935;30;20232;-84
2022/10/14 02:21:54;;;;;;;469.15;419.98;;;12.70;99.90;;;12.73;100.00;101001.66;4750018;30;20248;-85
2022/10/14 02:24:42;;;;;;;476.45;427.55;;;12.60;99.90;;;12.74;100.00;100991.91;4766099;30;20216;-83
2022/10/14 02:27:17;;;;;;;498.30;449.55;;;12.60;99.90;;;12.75;100.00;100996.34;4761194;30;20210;-84
2022/10/14 02:29:47;;;;;;;477.45;428.10;;;12.60;99.90;;;12.74;100.00;100989.25;4736312;30;20225;-84
2022/10/14 02:32:18;;;;;;;483.40;433.05;;;12.70;99.90;;;12.74;100.00;100984.84;4734546;30;20206;-85
2022/10/14 02:34:53;;;;;;;474.33;425.95;;;12.60;99.90;;;12.73;100.00;100974.22;4748826;30;20231;-84
2022/10/14 02:37:22;;;;;;;477.95;429.02;;;12.70;99.90;;;12.72;100.00;100975.97;4762372;30;20214;-83
2022/10/14 02:40:02;;;;;;;479.65;430.35;;;12.60;99.90;;;12.71;100.00;100974.19;4768021;30;20221;-84
2022/10/14 02:42:31;;;;;;;475.38;426.85;;;12.60;99.90;;;12.70;100.00;100972.41;4738720;30;20237;-84
2022/10/14 02:45:00;;;;;;;476.05;427.02;;;12.60;99.90;;;12.70;100.00;100966.22;4764221;30;20232;-84
2022/10/14 02:47:28;;;;;;;490.83;440.17;;;12.60;99.90;;;12.69;100.00;100956.50;4742389;30;20209;-84
2022/10/14 02:49:56;;;;;;;484.67;435.15;;;12.60;99.90;;;12.67;100.00;100953.81;4765569;30;20217;-85
2022/10/14 02:52:24;;;;;;;486.98;437.25;;;12.60;99.90;;;12.68;100.00;100957.38;4749746;30;20240;-83
2022/10/14 02:54:53;;;;;;;486.73;436.85;;;12.60;99.90;;;12.65;100.00;100949.38;4747199;30;20228;-84
2022/10/14 02:57:22;;;;;;;486.80;436.42;;;12.50;99.90;;;12.64;100.00;100948.47;4761159;30;20221;-84
2022/10/14 02:59:50;;;;;;;480.10;431.13;;;12.50;99.90;;;12.63;100.00;100948.47;4760927;30;20221;-83
2022/10/14 03:02:18;;;;;;;513.83;458.08;;;12.50;99.90;;;12.60;100.00;100938.72;4763789;24;20514;-83
2022/10/14 03:04:47;;;;;;;483.13;433.77;;;12.50;99.90;;;12.57;100.00;100925.44;4835168;29;20222;-83
2022/10/14 03:07:15;;;;;;;478.52;429.98;;;12.50;99.90;;;12.57;100.00;100924.53;4833586;29;20219;-83
2022/10/14 03:09:48;;;;;;;483.02;434.33;;;12.50;99.90;;;12.55;100.00;100928.94;4835078;29;20213;-83
2022/10/14 03:12:17;;;;;;;471.83;423.80;;;12.50;99.90;;;12.57;100.00;100929.84;4831186;29;20226;-81
2022/10/14 03:14:46;;;;;;;480.35;431.60;;;12.50;99.90;;;12.54;100.00;100925.41;4837487;29;20218;-82
2022/10/14 03:17:16;;;;;;;479.45;430.20;;;12.50;99.90;;;12.51;100.00;100906.81;4852920;29;20221;-80
2022/10/14 03:19:46;;;;;;;476.70;428.63;;;12.40;99.90;;;12.51;100.00;100914.75;4843317;29;20567;-80
2022/10/14 03:22:15;;;;;;;471.23;423.05;;;12.40;99.90;;;12.51;100.00;100925.38;4842380;29;20225;-80
2022/10/14 03:24:44;;;;;;;471.02;422.70;;;12.40;99.90;;;12.50;100.00;100924.50;4841240;29;20217;-83
2022/10/14 03:27:24;;;;;;;475.27;425.55;;;12.40;99.90;;;12.48;100.00;100923.59;4841348;29;20206;-84
2022/10/14 03:29:58;;;;;;;461.98;414.30;;;12.40;99.90;;;12.46;100.00;100924.44;4837591;29;20214;-83
2022/10/14 03:32:26;;;;;;;465.40;417.42;;;12.40;99.90;;;12.44;100.00;100926.19;4842239;29;20210;-82
2022/10/14 03:35:20;;;;;;;456.30;408.58;;;12.40;99.90;;;12.43;100.00;100921.75;4828610;29;20578;-81
2022/10/14 03:37:53;;;;;;;457.85;409.98;;;12.40;99.90;;;12.40;100.00;100925.28;4856312;29;20233;-82
2022/10/14 03:40:29;;;;;;;464.15;415.55;;;12.30;99.90;;;12.40;100.00;100925.28;4837864;29;20209;-83
2022/10/14 03:43:00;;;;;;;470.35;421.08;;;12.30;99.90;;;12.37;100.00;100922.59;4830220;29;20235;-84
2022/10/14 03:45:35;;;;;;;460.77;412.75;;;12.30;99.90;;;12.38;100.00;100929.69;4838033;29;20206;-82
2022/10/14 03:48:05;;;;;;;462.88;414.88;;;12.30;99.90;;;12.35;100.00;100927.00;4846449;29;20233;-82
2022/10/14 03:50:33;;;;;;;462.15;414.00;;;12.30;99.90;;;12.35;100.00;100934.94;4852575;29;20198;-84
2022/10/14 03:53:01;;;;;;;463.73;415.65;;;12.30;99.90;;;12.33;100.00;100927.84;4842993;29;20225;-84
2022/10/14 03:55:35;;;;;;;461.73;413.35;;;12.30;99.90;;;12.33;100.00;100931.41;4807751;29;20215;-84
2022/10/14 03:58:05;;;;;;;470.48;421.60;;;12.30;99.90;;;12.33;100.00;100926.09;4855892;29;20254;-82
2022/10/14 04:00:34;;;;;;;463.65;415.25;;;12.20;99.90;;;12.30;100.00;100920.75;4844128;29;20593;-81
2022/10/14 04:03:20;;;;;;;456.40;408.13;;;12.20;99.90;;;12.28;100.00;100922.50;4844590;29;20229;-81
2022/10/14 04:05:48;;;;;;;467.77;419.13;;;12.20;99.90;;;12.33;100.00;100922.56;4837212;29;20213;-81
2022/10/14 04:08:21;;;;;;;465.55;416.92;;;12.20;99.90;;;12.32;100.00;100926.06;4841758;29;20238;-83
2022/10/14 04:10:55;;;;;;;454.10;405.55;;;12.20;99.90;;;12.29;100.00;100921.63;4852655;29;20221;-83
2022/10/14 04:13:25;;;;;;;477.92;426.88;;;12.20;99.90;;;12.30;100.00;100920.75;4841388;29;20222;-80
2022/10/14 04:15:53;;;;;;;469.77;420.05;;;12.20;99.90;;;12.34;100.00;100924.31;4845374;29;20218;-81
2022/10/14 04:18:30;;;;;;;460.83;412.15;;;12.20;99.90;;;12.33;100.00;100923.44;4872474;29;20229;-83
2022/10/14 04:21:09;;;;;;;462.63;413.88;;;12.20;99.90;;;12.35;100.00;100932.31;4851023;29;20217;-82
2022/10/14 04:23:38;;;;;;;453.52;404.23;;;12.20;99.90;;;12.35;100.00;100934.06;4849326;29;20241;-83
2022/10/14 04:26:14;;;;;;;460.83;411.55;;;12.30;99.90;;;12.31;100.00;100926.94;4854428;29;20214;-83
2022/10/14 04:28:44;;;;;;;460.10;410.77;;;12.20;99.90;;;12.33;100.00;100942.00;4851293;29;20249;-82
2022/10/14 04:31:19;;;;;;;462.08;412.20;;;12.20;99.90;;;12.31;100.00;100933.16;4855577;29;20228;-80
2022/10/14 04:33:57;;;;;;;467.80;416.60;;;12.20;99.90;;;12.33;100.00;100935.81;4827734;29;20214;-81
2022/10/14 04:36:31;;;;;;;462.75;412.95;;;12.20;99.90;;;12.31;100.00;100930.50;4837655;29;20209;-82
2022/10/14 04:39:03;;;;;;;465.70;414.92;;;12.20;99.90;;;12.34;100.00;100929.63;4844449;29;20253;-81
2022/10/14 04:41:31;;;;;;;462.15;412.35;;;12.20;99.90;;;12.34;100.00;100925.22;4846004;29;20220;-81
2022/10/14 04:44:01;;;;;;;469.98;418.98;;;12.20;99.90;;;12.34;100.00;100927.88;4849927;29;20249;-83
2022/10/14 04:46:34;;;;;;;470.00;419.15;;;12.20;99.90;;;12.27;100.00;100925.16;4828883;29;20214;-83
2022/10/14 04:49:02;;;;;;;465.83;415.55;;;12.20;99.90;;;12.21;100.00;100907.41;4842729;29;20231;-83
2022/10/14 04:51:36;;;;;;;463.85;413.88;;;12.10;99.90;;;12.18;100.00;100904.72;4827108;29;20206;-83
2022/10/14 04:54:22;;;;;;;462.95;410.63;;;12.10;99.90;;;12.18;100.00;100907.38;4835382;29;20225;-81
2022/10/14 04:56:53;;;;;;;458.77;409.30;;;12.10;99.90;;;12.17;100.00;100910.91;4838047;29;20210;-81
2022/10/14 04:59:21;;;;;;;461.33;411.52;;;12.10;99.90;;;12.20;100.00;100912.69;4841410;29;20226;-83
2022/10/14 05:01:55;;;;;;;458.38;408.85;;;12.10;99.90;;;12.25;100.00;100905.69;4851962;29;20220;-83
2022/10/14 05:04:31;;;;;;;460.10;410.13;;;12.10;99.90;;;12.27;100.00;100909.22;4867797;29;20240;-83
2022/10/14 05:07:00;;;;;;;459.85;409.80;;;12.10;99.90;;;12.27;100.00;100915.44;4843664;29;20207;-82
2022/10/14 05:09:29;;;;;;;475.33;423.77;;;12.10;99.90;;;12.28;100.00;100913.66;4848342;29;20236;-82
2022/10/14 05:11:58;;;;;;;459.98;410.55;;;12.20;99.90;;;12.30;100.00;100911.91;4852717;29;20221;-81
2022/10/14 05:14:36;;;;;;;454.70;405.65;;;12.20;99.90;;;12.29;100.00;100913.69;4849311;29;20217;-81
2022/10/14 05:17:21;;;;;;;457.50;408.45;;;12.20;99.90;;;12.31;100.00;100917.22;4855227;29;20209;-81
2022/10/14 05:19:49;;;;;;;462.80;413.05;;;12.20;99.90;;;12.28;100.00;100903.06;4849130;29;20210;-81
2022/10/14 05:22:18;;;;;;;457.23;407.85;;;12.20;99.90;;;12.27;100.00;100902.16;4843324;29;20214;-80
2022/10/14 05:24:47;;;;;;;453.00;404.20;;;12.20;99.90;;;12.32;100.00;100907.50;4840605;29;20245;-80
2022/10/14 05:27:16;;;;;;;458.65;409.55;;;12.20;99.90;;;12.32;100.00;100911.06;4841831;29;20202;-81
2022/10/14 05:29:45;;;;;;;453.02;404.20;;;12.10;99.90;;;12.35;100.00;100915.50;4840127;29;20237;-82
2022/10/14 05:32:14;;;;;;;455.08;406.48;;;12.30;99.90;;;12.34;100.00;100917.25;4844831;29;20217;-81
2022/10/14 05:34:45;;;;;;;455.15;406.58;;;12.20;99.90;;;12.36;100.00;100920.81;4832447;29;20230;-81
2022/10/14 05:37:23;;;;;;;462.85;412.48;;;12.20;99.90;;;12.40;100.00;100917.31;4842247;29;20221;-82
2022/10/14 05:39:54;;;;;;;453.70;404.63;;;12.30;99.90;;;12.43;100.00;100925.31;4841065;29;20214;-81
2022/10/14 05:42:25;;;;;;;454.55;406.27;;;12.30;99.90;;;12.43;100.00;100925.31;4859775;29;20224;-81
2022/10/14 05:44:56;;;;;;;450.70;402.58;;;12.40;99.90;;;12.45;100.00;100928.84;4855745;29;20245;-83
2022/10/14 05:47:25;;;;;;;464.02;414.45;;;12.30;99.90;;;12.44;100.00;100935.03;4843981;29;20210;-82
2022/10/14 05:50:01;;;;;;;449.60;401.63;;;12.30;99.90;;;12.48;100.00;100942.16;4834494;29;20214;-80
2022/10/14 05:52:31;;;;;;;453.73;405.17;;;12.40;99.90;;;12.47;100.00;100935.06;4841453;29;20217;-81
2022/10/14 05:55:08;;;;;;;466.05;416.08;;;12.40;99.90;;;12.49;100.00;100935.09;4839785;29;20213;-83
2022/10/14 05:57:36;;;;;;;456.42;407.25;;;12.40;99.90;;;12.51;100.00;100943.94;4854566;29;20210;-83
2022/10/14 06:00:06;;;;;;;449.65;401.60;;;12.40;99.90;;;12.50;100.00;100942.16;4842656;29;20209;-83
2022/10/14 06:02:43;;;;;;;456.80;408.60;;;12.40;99.90;;;12.49;100.00;100937.75;4841501;29;20226;-83
2022/10/14 06:05:16;;;;;;;449.20;401.40;;;12.40;99.90;;;12.52;100.00;100947.47;4858209;29;20245;-83
2022/10/14 06:07:44;;;;;;;455.02;407.48;;;12.40;99.90;;;12.47;100.00;100945.69;4865600;29;20245;-83
2022/10/14 06:10:11;;;;;;;460.50;412.85;;;12.40;99.90;;;12.48;100.00;100951.88;4848893;29;20214;-82
2022/10/14 06:12:40;;;;;;;458.70;411.00;;;12.40;99.90;;;12.49;100.00;100948.34;4864347;29;20209;-83
2022/10/14 06:15:09;;;;;;;462.17;413.88;;;12.40;99.90;;;12.51;100.00;100941.28;4847832;29;20214;-83
2022/10/14 06:17:37;;;;;;;467.98;418.23;;;12.40;99.90;;;12.52;100.00;100939.53;4858458;29;20205;-83
2022/10/14 06:20:06;;;;;;;456.40;408.85;;;12.40;99.90;;;12.53;100.00;100936.88;4850715;29;20221;-83
2022/10/14 06:22:34;;;;;;;459.40;411.52;;;12.40;99.90;;;12.56;100.00;100938.69;4846858;29;20222;-83
2022/10/14 06:25:02;;;;;;;464.67;415.38;;;12.40;99.90;;;12.61;100.00;100944.91;4852179;29;20237;-82
2022/10/14 06:27:31;;;;;;;469.88;419.65;;;12.50;99.90;;;12.63;100.00;100948.47;4839054;29;20214;-82
2022/10/14 06:29:59;;;;;;;464.83;415.85;;;12.50;99.90;;;12.63;100.00;100944.06;4841341;29;20222;-85
2022/10/14 06:32:27;;;;;;;463.08;414.25;;;12.50;99.90;;;12.68;100.00;100938.78;4838360;29;20212;-83
2022/10/14 06:34:55;;;;;;;471.30;421.52;;;12.60;99.90;;;12.70;100.00;100945.88;4834899;29;20598;-84
2022/10/14 06:37:23;;;;;;;474.73;423.98;;;12.60;99.90;;;12.78;100.00;100945.94;4832623;29;20219;-83
2022/10/14 06:39:51;;;;;;;694.78;640.03;;;12.70;99.90;;;12.77;100.00;100941.50;4837212;29;20472;-82
2022/10/14 06:42:19;;;;;;;530.85;481.30;;;12.70;99.90;;;12.81;100.00;100941.56;4842714;29;20217;-84
2022/10/14 06:44:47;;;;;;;501.02;451.83;;;12.70;99.90;;;12.92;100.00;100944.28;4843647;29;20246;-82
2022/10/14 06:47:15;;;;;;;495.63;446.67;;;12.80;99.90;;;12.95;100.00;100946.97;4850690;29;20217;-82
2022/10/14 06:49:43;;;;;;;483.90;435.08;;;12.80;99.90;;;12.95;100.00;100941.66;4857783;29;20230;-81
2022/10/14 06:52:10;;;;;;;491.27;441.80;;;12.80;99.90;;;13.00;100.00;100939.03;4851009;29;20237;-82
2022/10/14 06:54:38;;;;;;;490.08;441.08;;;12.90;99.90;;;13.04;100.00;100938.22;4845826;29;20210;-82
2022/10/14 06:57:11;;;;;;;487.30;437.58;;;12.90;99.90;;;13.09;100.00;100940.03;4847678;29;20220;-83
2022/10/14 06:59:39;;;;;;;496.23;446.15;;;13.00;99.90;;;13.16;100.00;100942.72;4849492;29;20232;-83
2022/10/14 07:02:08;;;;;;;490.42;441.17;;;13.00;99.90;;;13.11;100.00;100937.38;4850506;29;20225;-84
2022/10/14 07:04:38;;;;;;;491.70;442.67;;;13.00;99.90;;;13.14;100.00;100932.97;4844368;29;20237;-85
2022/10/14 07:07:07;;;;;;;492.83;443.90;;;13.00;99.90;;;13.21;100.00;100933.03;4848577;29;20710;-85
2022/10/14 07:09:36;;;;;;;493.35;444.65;;;13.10;99.90;;;13.18;100.00;100931.25;4843454;29;20241;-83
2022/10/14 07:12:04;;;;;;;500.05;450.23;;;13.10;99.90;;;13.27;100.00;100936.63;4842406;29;20214;-83
2022/10/14 07:14:32;;;;;;;506.38;456.40;;;13.10;99.90;;;13.24;100.00;100935.72;4826128;29;20214;-84
2022/10/14 07:17:00;;;;;;;504.80;454.77;;;13.10;99.90;;;13.28;100.00;100933.09;4847252;29;20284;-84
2022/10/14 07:19:28;;;;;;;509.90;460.25;;;13.20;99.90;;;13.34;100.00;100932.25;4839787;29;20265;-83
2022/10/14 07:21:56;;;;;;;514.85;464.83;;;13.20;99.90;;;13.39;100.00;100927.84;4842896;29;20234;-83
2022/10/14 07:24:24;;;;;;;517.58;467.33;;;13.30;99.90;;;13.41;100.00;100931.38;4837543;29;20237;-83
2022/10/14 07:26:52;;;;;;;539.80;486.85;;;13.30;99.90;;;13.46;100.00;100934.97;4832585;29;20225;-83
2022/10/14 07:29:22;;;;;;;529.65;478.85;;;13.60;99.90;;;13.50;100.00;100930.56;4839412;29;20237;-83
2022/10/14 07:31:55;;;;;;;520.58;470.77;;;13.40;99.90;;;13.53;100.00;100920.81;4848594;29;20236;-83
2022/10/14 07:34:25;;;;;;;528.10;477.20;;;13.40;99.90;;;13.51;100.00;100919.94;4841347;29;20605;-83
2022/10/14 07:36:56;;;;;;;540.28;488.75;;;13.40;99.90;;;13.57;100.00;100921.72;4850981;29;20605;-83
2022/10/14 07:39:24;;;;;;;535.63;485.70;;;13.40;99.90;;;13.63;100.00;100917.31;4846250;29;20236;-83
2022/10/14 07:41:53;;;;;;;535.00;485.10;;;13.50;99.90;;;13.67;100.00;100919.13;4841569;29;20221;-83
2022/10/14 07:44:21;;;;;;;540.22;490.35;;;13.60;99.90;;;13.82;100.00;100923.59;4843975;29;411285;-83
2022/10/14 07:46:54;;;;;;;545.67;496.00;;;13.40;99.90;;;13.89;100.00;100922.75;4883501;29;20537;-83
2022/10/14 07:49:22;;;;;;;545.60;495.73;;;13.70;99.90;;;13.94;100.00;100926.31;4795479;29;2340658;-83
2022/10/14 07:51:50;;;;;;;556.35;505.35;;;13.70;99.90;;;14.01;100.00;100916.56;4878105;29;20224;-83
2022/10/14 07:54:24;;;;;;;551.25;500.70;;;13.60;99.90;;;14.09;100.00;100904.19;4871545;29;20213;-82
2022/10/14 07:56:52;;;;;;;554.85;504.73;;;13.90;99.90;;;14.16;100.00;100913.06;4873083;29;20235;-82
2022/10/14 07:59:21;;;;;;;564.22;513.55;;;14.00;99.90;;;14.19;100.00;100905.09;4871727;29;20233;-82
2022/10/14 08:01:52;;;;;;;568.38;517.88;;;14.10;99.90;;;14.17;100.00;100904.19;4874478;29;20613;-83
2022/10/14 08:04:22;;;;;;;576.13;524.67;;;13.90;99.90;;;14.23;100.00;100888.25;4871753;29;20233;-82
2022/10/14 08:06:52;;;;;;;574.40;523.30;;;14.00;99.90;;;14.21;100.00;100885.56;4873289;29;20224;-82
2022/10/14 08:09:21;;;;;;;580.20;529.13;;;14.10;99.90;;;14.22;100.00;100878.50;4870399;29;20240;-83
2022/10/14 08:11:49;;;;;;;571.50;521.13;;;14.10;99.90;;;14.25;100.00;100863.41;4871675;29;20231;-82
2022/10/14 08:14:18;;;;;;;584.20;533.60;;;14.50;99.90;;;14.26;100.00;100864.31;4868862;29;20209;-82
2022/10/14 08:16:47;;;;;;;586.80;535.60;;;14.10;99.90;;;14.27;100.00;100860.75;4872171;29;20223;-82
2022/10/14 08:19:16;;;;;;;584.65;534.00;;;14.00;99.90;;;14.32;100.00;100864.34;4868354;29;20224;-83
2022/10/14 08:21:44;;;;;;;586.17;535.05;;;14.20;99.90;;;14.33;100.00;100864.34;4886314;29;20224;-82
2022/10/14 08:24:19;;;;;;;582.08;532.13;;;14.20;99.90;;;14.32;100.00;100854.59;4870982;29;20227;-83
2022/10/14 08:26:56;;;;;;;586.60;536.65;;;14.20;99.90;;;14.40;100.00;100857.25;4876147;29;20217;-82
2022/10/14 08:29:28;;;;;;;584.70;535.00;;;14.30;99.90;;;14.43;100.00;100854.63;4862072;29;20239;-82
2022/10/14 08:31:56;;;;;;;594.08;544.35;;;14.30;99.90;;;14.50;100.00;100858.16;4870629;29;20212;-82
2022/10/14 08:34:27;;;;;;;601.60;550.47;;;14.30;99.90;;;14.48;100.00;100855.50;4868165;29;20216;-82
2022/10/14 08:37:01;;;;;;;595.20;545.28;;;14.30;99.90;;;14.53;100.00;100856.38;4867685;29;20211;-82
2022/10/14 08:39:31;;;;;;;600.33;549.60;;;14.30;99.90;;;14.54;100.00;100843.97;4867139;29;20231;-82
2022/10/14 08:42:25;;;;;;;603.45;553.13;;;14.50;99.90;;;14.67;100.00;100843.97;4872936;29;20228;-83
2022/10/14 08:45:07;;;;;;;598.50;548.97;;;14.50;99.90;;;14.71;100.00;100836.84;4872374;29;20240;-83
2022/10/14 08:47:40;;;;;;;612.88;561.33;;;14.60;99.90;;;14.80;100.00;100831.50;4855639;29;20658;-82
2022/10/14 08:50:38;;;;;;;604.85;554.83;;;14.70;99.90;;;14.86;100.00;100830.63;4856910;29;20291;-82
2022/10/14 08:53:17;;;;;;;612.90;562.35;;;14.70;99.90;;;14.79;100.00;100818.22;4845324;29;20218;-82
2022/10/14 08:55:59;;;;;;;616.58;565.88;;;14.60;99.90;;;14.94;100.00;100829.72;4871756;29;20223;-83
2022/10/14 08:58:37;;;;;;;614.53;563.85;;;14.70;99.90;;;14.98;100.00;100828.81;4868665;29;20244;-82
2022/10/14 09:01:29;;;;;;;622.50;571.65;;;14.70;99.90;;;15.06;100.00;100828.78;4872256;29;20223;-83
2022/10/14 09:04:12;;;;;;;613.47;563.55;;;14.90;99.90;;;14.94;100.00;100811.06;4874944;29;20219;-83
2022/10/14 09:06:44;;;;;;;623.78;574.13;;;14.80;99.90;;;14.90;100.00;100809.31;4884381;29;20274;-83
2022/10/14 09:09:30;;;;;;;617.25;567.50;;;14.80;99.90;;;14.97;100.00;100812.84;4884190;29;20224;-83
2022/10/14 09:12:06;;;;;;;625.00;575.20;;;14.80;99.90;;;14.94;100.00;100804.84;4889182;29;20205;-83
2022/10/14 09:14:45;;;;;;;627.58;578.33;;;14.80;99.90;;;14.96;100.00;100806.63;4883186;29;20209;-83
2022/10/14 09:17:21;;;;;;;631.40;581.38;;;14.80;99.90;;;15.03;100.00;100802.16;4883220;29;20212;-83
2022/10/14 09:20:21;;;;;;;635.53;584.95;;;14.80;99.90;;;15.15;100.00;100806.56;4881513;29;20209;-83
2022/10/14 09:23:03;;;;;;;632.45;581.20;;;15.50;99.90;;;15.12;100.00;100798.56;4878026;29;20205;-83
2022/10/14 09:25:36;;;;;;;633.85;582.97;;;14.90;99.90;;;15.13;100.00;100779.03;4880086;29;20228;-82
2022/10/14 09:28:04;;;;;;;646.40;594.38;;;15.00;99.90;;;15.18;100.00;100779.91;4866112;29;20228;-83
2022/10/14 09:30:36;;;;;;;653.85;602.10;;;15.00;99.90;;;15.24;100.00;100775.44;4874249;29;20208;-83
2022/10/14 09:33:08;;;;;;;651.30;599.45;;;15.10;99.90;;;15.30;100.00;100769.19;4841390;29;20247;-83
2022/10/14 09:35:41;;;;;;;655.25;603.60;;;15.20;99.90;;;15.46;100.00;100776.22;4876683;29;20216;-83
2022/10/14 09:38:11;;;;;;;662.75;610.28;;;15.20;99.90;;;15.44;100.00;100770.00;4874578;29;20236;-82
2022/10/14 09:40:54;;;;;;;662.97;610.88;;;15.20;99.90;;;15.45;100.00;100757.56;4876508;29;20209;-83
2022/10/14 09:43:23;;;;;;;668.40;615.25;;;15.30;99.90;;;15.31;100.00;100737.22;4876750;29;20216;-82
2022/10/14 09:46:10;;;;;;;667.67;614.30;;;15.20;99.90;;;15.36;100.00;100743.41;4875789;29;20322;-82
2022/10/14 09:48:44;;;;;;;663.15;611.33;;;15.20;99.90;;;15.44;100.00;100743.34;4868955;29;20220;-82
2022/10/14 09:51:23;;;;;;;669.95;617.33;;;15.30;99.90;;;15.49;100.00;100741.53;4877215;29;20220;-82
2022/10/14 09:54:03;;;;;;;674.65;622.15;;;15.30;99.90;;;15.49;100.00;100730.00;4878245;29;20219;-81
2022/10/14 09:56:38;;;;;;;669.85;617.72;;;15.40;99.90;;;15.41;100.00;100716.72;4870631;29;20209;-83
2022/10/14 09:59:18;;;;;;;674.50;621.58;;;15.30;99.90;;;15.55;100.00;100729.94;4875240;29;20325;-83
2022/10/14 10:01:59;;;;;;;681.67;627.67;;;15.40;99.90;;;15.48;100.00;100709.56;4855538;29;20220;-83
2022/10/14 10:04:46;;;;;;;685.72;631.50;;;15.40;99.90;;;15.62;100.00;100716.63;4874635;29;20224;-82
2022/10/14 10:07:26;;;;;;;683.75;629.15;;;15.50;99.90;;;15.74;100.00;100720.13;4875396;29;20240;-83